Time;durP1;ratioP1;P1;durP2;ratioP2;P2;SDS_P1;SDS_P2;PMS_P1;PMS_P2;Temp;Humidity;BMP_temperature;BMP_pressure;BME280_temperature;BME280_humidity;BME280_pressure;Samples;Min_cycle;Max_cycle;Signal;HPM_P1;HPM_P2
2023/09/04 00:02:01;;;;;;;7.60;3.75;;;16.10;99.90;;;;;;5091701;28;20109;-69
2023/09/04 00:04:28;;;;;;;10.00;3.90;;;16.10;99.90;;;;;;5091286;28;20122;-70
2023/09/04 00:06:53;;;;;;;8.15;3.50;;;16.10;99.90;;;;;;5091775;28;20369;-69
2023/09/04 00:09:19;;;;;;;6.80;3.13;;;16.10;99.90;;;;;;5092131;28;20017;-69
2023/09/04 00:11:44;;;;;;;5.30;3.08;;;16.10;99.90;;;;;;5091544;28;20025;-67
2023/09/04 00:14:11;;;;;;;4.40;3.00;;;16.10;99.90;;;;;;5090500;28;20056;-68
2023/09/04 00:16:37;;;;;;;7.85;3.35;;;16.00;99.90;;;;;;5090329;28;20531;-68
2023/09/04 00:19:03;;;;;;;8.82;3.10;;;16.00;99.90;;;;;;5091272;28;20032;-69
2023/09/04 00:21:29;;;;;;;7.22;3.90;;;16.00;99.90;;;;;;5091719;28;20024;-69
2023/09/04 00:23:54;;;;;;;6.30;3.83;;;15.90;99.90;;;;;;5091232;28;20036;-70
2023/09/04 00:26:20;;;;;;;4.55;3.25;;;15.90;99.90;;;;;;5091322;28;20055;-70
2023/09/04 00:28:46;;;;;;;5.72;3.67;;;16.00;99.90;;;;;;5091225;28;20127;-70
2023/09/04 00:31:11;;;;;;;4.10;2.75;;;15.90;99.90;;;;;;5090993;28;20052;-70
2023/09/04 00:33:38;;;;;;;5.00;3.20;;;15.90;99.90;;;;;;5090861;28;20028;-70
2023/09/04 00:36:03;;;;;;;6.95;3.42;;;15.90;99.90;;;;;;5090973;28;20489;-69
2023/09/04 00:38:29;;;;;;;7.55;3.22;;;15.80;99.90;;;;;;5091215;28;20052;-69
2023/09/04 00:40:55;;;;;;;4.93;3.03;;;15.80;99.90;;;;;;5090897;28;20088;-70
2023/09/04 00:43:20;;;;;;;6.95;3.20;;;15.80;99.90;;;;;;5090961;28;20469;-70
2023/09/04 00:45:46;;;;;;;4.35;3.10;;;15.70;99.90;;;;;;5090849;28;20028;-68
2023/09/04 00:48:13;;;;;;;5.25;3.45;;;15.70;99.90;;;;;;5091305;28;20016;-69
2023/09/04 00:50:40;;;;;;;9.45;4.15;;;15.70;99.90;;;;;;5090798;28;20035;-70
2023/09/04 00:53:08;;;;;;;5.00;3.25;;;15.60;99.90;;;;;;5090900;28;20113;-69
2023/09/04 00:55:34;;;;;;;4.55;3.10;;;15.60;99.90;;;;;;5089630;28;20482;-69
2023/09/04 00:58:00;;;;;;;5.68;3.22;;;15.60;99.90;;;;;;5089846;28;20701;-69
2023/09/04 01:00:27;;;;;;;5.13;3.05;;;15.60;99.90;;;;;;5091229;28;20477;-70
2023/09/04 01:02:54;;;;;;;4.82;2.60;;;15.50;99.90;;;;;;5089637;28;20028;-69
2023/09/04 01:05:20;;;;;;;5.38;3.28;;;15.50;99.90;;;;;;5090624;28;20040;-69
2023/09/04 01:07:47;;;;;;;4.57;2.83;;;15.50;99.90;;;;;;5090672;28;20024;-69
2023/09/04 01:10:13;;;;;;;9.18;3.30;;;15.50;99.90;;;;;;5090533;28;20028;-69
2023/09/04 01:12:47;;;;;;;6.72;2.72;;;15.50;99.90;;;;;;5091062;28;20017;-69
2023/09/04 01:15:13;;;;;;;5.65;2.95;;;15.50;99.90;;;;;;5089691;28;20048;-69
2023/09/04 01:17:40;;;;;;;7.38;3.13;;;15.50;99.90;;;;;;5090742;28;20032;-68
2023/09/04 01:20:27;;;;;;;6.35;2.78;;;15.50;99.90;;;;;;5090590;28;20099;-68
2023/09/04 01:22:54;;;;;;;4.40;3.03;;;15.40;99.90;;;;;;5089417;28;20036;-69
2023/09/04 01:25:21;;;;;;;3.90;2.85;;;15.40;99.90;;;;;;5090529;28;20039;-69
2023/09/04 01:28:13;;;;;;;3.53;2.60;;;15.40;99.90;;;;;;5090542;28;20446;-68
2023/09/04 01:31:02;;;;;;;6.90;2.83;;;15.40;99.90;;;;;;5090935;28;20032;-68
2023/09/04 01:33:33;;;;;;;4.40;2.95;;;15.40;99.90;;;;;;5090560;28;20039;-68
2023/09/04 01:36:04;;;;;;;3.92;2.92;;;15.40;99.90;;;;;;5090308;28;20028;-69
2023/09/04 01:38:32;;;;;;;5.05;2.53;;;15.40;99.90;;;;;;5090580;28;20024;-68
2023/09/04 01:40:58;;;;;;;6.63;2.67;;;15.40;99.90;;;;;;5090489;28;20036;-69
2023/09/04 01:43:23;;;;;;;6.68;2.88;;;15.40;99.90;;;;;;5090629;28;20034;-70
2023/09/04 01:45:49;;;;;;;5.40;3.10;;;15.40;99.90;;;;;;5090074;28;20442;-70
2023/09/04 01:48:14;;;;;;;4.68;2.95;;;15.40;99.90;;;;;;5090802;28;20299;-69
2023/09/04 01:50:40;;;;;;;6.07;3.72;;;15.40;99.90;;;;;;5090548;28;20089;-69
2023/09/04 01:53:06;;;;;;;8.63;3.00;;;15.40;99.90;;;;;;5093435;28;20020;-69
2023/09/04 01:55:31;;;;;;;8.55;3.40;;;15.40;99.90;;;;;;5094321;28;20058;-69
2023/09/04 01:57:57;;;;;;;3.63;3.03;;;15.30;99.90;;;;;;5094001;28;20020;-69
2023/09/04 02:00:22;;;;;;;6.90;2.38;;;15.30;99.90;;;;;;5094566;28;20024;-69
2023/09/04 02:02:49;;;;;;;5.82;3.15;;;15.30;99.90;;;;;;5094324;28;20039;-69
2023/09/04 02:05:15;;;;;;;5.55;2.83;;;15.20;99.90;;;;;;5093888;28;20048;-68
2023/09/04 02:07:41;;;;;;;4.93;3.08;;;15.20;99.90;;;;;;5094182;28;20024;-68
2023/09/04 02:10:07;;;;;;;3.58;2.78;;;15.20;99.90;;;;;;5093823;28;20028;-68
2023/09/04 02:12:32;;;;;;;5.13;2.90;;;15.20;99.90;;;;;;5093410;28;20078;-69
2023/09/04 02:14:58;;;;;;;6.88;3.53;;;15.20;99.90;;;;;;5094017;28;20052;-70
2023/09/04 02:17:24;;;;;;;6.20;3.17;;;15.30;99.90;;;;;;5094146;28;20056;-69
2023/09/04 02:19:49;;;;;;;4.97;3.58;;;15.30;99.90;;;;;;5093841;28;20040;-69
2023/09/04 02:22:15;;;;;;;6.88;3.85;;;15.30;99.90;;;;;;5093779;28;20028;-69
2023/09/04 02:24:43;;;;;;;5.13;3.72;;;15.30;99.90;;;;;;5093879;28;20024;-68
2023/09/04 02:27:09;;;;;;;4.68;3.28;;;15.30;99.90;;;;;;5094244;28;20048;-70
2023/09/04 02:29:34;;;;;;;4.57;3.45;;;15.30;99.90;;;;;;5093488;28;20410;-70
2023/09/04 02:32:00;;;;;;;6.82;3.25;;;15.30;99.90;;;;;;5092552;28;20039;-70
2023/09/04 02:34:26;;;;;;;6.32;3.30;;;15.30;99.90;;;;;;5093549;28;20548;-70
2023/09/04 02:36:51;;;;;;;5.15;2.63;;;15.20;99.90;;;;;;5093475;28;20028;-70
2023/09/04 02:39:17;;;;;;;5.43;3.50;;;15.20;99.90;;;;;;5094096;28;20028;-68
2023/09/04 02:41:43;;;;;;;5.88;3.38;;;15.20;99.90;;;;;;5093440;28;20032;-69
2023/09/04 02:44:08;;;;;;;6.50;3.20;;;15.20;99.90;;;;;;5093514;28;20024;-69
2023/09/04 02:46:34;;;;;;;10.13;3.97;;;15.20;99.90;;;;;;5093266;28;20040;-69
2023/09/04 02:48:59;;;;;;;6.45;3.50;;;15.30;99.90;;;;;;5093179;28;20020;-70
2023/09/04 02:51:25;;;;;;;5.38;3.17;;;15.20;99.90;;;;;;5093753;28;20063;-69
2023/09/04 02:53:50;;;;;;;6.88;3.13;;;15.10;99.90;;;;;;5093153;28;20462;-69
2023/09/04 02:56:16;;;;;;;5.40;3.15;;;15.20;99.90;;;;;;5093192;28;20107;-69
2023/09/04 02:58:42;;;;;;;4.90;3.10;;;15.10;99.90;;;;;;5093064;28;20097;-70
2023/09/04 03:01:08;;;;;;;4.70;3.00;;;15.20;99.90;;;;;;5092891;28;20032;-68
2023/09/04 03:03:33;;;;;;;7.50;3.58;;;15.10;99.90;;;;;;5093306;28;20094;-68
2023/09/04 03:06:11;;;;;;;5.38;3.28;;;15.10;99.90;;;;;;5092514;28;20051;-69
2023/09/04 03:08:38;;;;;;;;;;;15.20;99.90;;;;;;5093391;28;20028;-71
2023/09/04 03:11:09;;;;;;;4.80;2.85;;;15.20;99.90;;;;;;5092946;28;19948;-68
2023/09/04 03:13:35;;;;;;;5.10;3.60;;;15.10;99.90;;;;;;5092688;28;20040;-70
2023/09/04 03:16:00;;;;;;;4.40;3.08;;;15.10;99.90;;;;;;5092413;28;20044;-70
2023/09/04 03:18:26;;;;;;;16.38;4.63;;;15.10;99.90;;;;;;5092960;28;20051;-69
2023/09/04 03:20:52;;;;;;;6.78;3.53;;;15.10;99.90;;;;;;5092508;28;20040;-69
2023/09/04 03:23:18;;;;;;;7.80;3.85;;;15.20;99.90;;;;;;5092695;28;20092;-69
2023/09/04 03:25:44;;;;;;;7.47;3.25;;;15.10;99.90;;;;;;5092186;28;20044;-69
2023/09/04 03:28:09;;;;;;;5.43;2.83;;;15.10;99.90;;;;;;5092262;28;20108;-70
2023/09/04 03:30:35;;;;;;;4.63;2.80;;;15.00;99.90;;;;;;5092785;28;20035;-68
2023/09/04 03:33:00;;;;;;;7.75;3.13;;;15.00;99.90;;;;;;5092236;28;20032;-70
2023/09/04 03:35:26;;;;;;;4.63;3.08;;;15.00;99.90;;;;;;5092223;28;20024;-68
2023/09/04 03:37:52;;;;;;;4.70;2.90;;;15.00;99.90;;;;;;5092135;28;20089;-69
2023/09/04 03:40:19;;;;;;;6.55;3.20;;;15.00;99.90;;;;;;5091965;28;20024;-69
2023/09/04 03:42:45;;;;;;;7.70;3.80;;;15.00;99.90;;;;;;5092010;28;20051;-70
2023/09/04 03:45:10;;;;;;;8.10;3.15;;;14.90;99.90;;;;;;5092607;28;20067;-70
2023/09/04 03:47:36;;;;;;;4.53;3.08;;;14.90;99.90;;;;;;5092019;28;20028;-69
2023/09/04 03:50:02;;;;;;;5.40;3.05;;;14.80;99.90;;;;;;5091968;28;20036;-69
2023/09/04 03:52:27;;;;;;;8.23;3.45;;;14.80;99.90;;;;;;5090673;28;20036;-69
2023/09/04 03:54:53;;;;;;;5.43;3.33;;;14.80;99.90;;;;;;5090863;28;20020;-69
2023/09/04 03:57:19;;;;;;;8.57;3.45;;;14.70;99.90;;;;;;5090940;28;20020;-70
2023/09/04 03:59:44;;;;;;;5.40;3.00;;;14.60;99.90;;;;;;5091860;28;20132;-70
2023/09/04 04:02:10;;;;;;;5.22;3.33;;;14.60;99.90;;;;;;5091750;28;20087;-70
2023/09/04 04:04:35;;;;;;;5.03;3.40;;;14.60;99.90;;;;;;5091412;28;20070;-69
2023/09/04 04:07:01;;;;;;;4.38;3.33;;;14.60;99.90;;;;;;5092018;28;20044;-70
2023/09/04 04:09:27;;;;;;;5.00;3.03;;;14.50;99.90;;;;;;5092315;28;20028;-70
2023/09/04 04:11:52;;;;;;;7.40;3.38;;;14.60;99.90;;;;;;5091740;28;20028;-69
2023/09/04 04:14:18;;;;;;;5.88;3.08;;;14.60;99.90;;;;;;5090884;28;20077;-70
2023/09/04 04:16:44;;;;;;;6.30;3.53;;;14.50;99.90;;;;;;5091454;28;20044;-70
2023/09/04 04:19:09;;;;;;;9.52;3.50;;;14.60;99.90;;;;;;5091563;28;20050;-69
2023/09/04 04:21:35;;;;;;;6.22;3.47;;;14.60;99.90;;;;;;5092148;28;20446;-70
2023/09/04 04:24:00;;;;;;;6.97;4.00;;;14.60;99.90;;;;;;5091400;28;20093;-70
2023/09/04 04:26:26;;;;;;;10.40;3.67;;;14.60;99.90;;;;;;5091088;28;20029;-70
2023/09/04 04:28:52;;;;;;;4.57;3.58;;;14.60;99.90;;;;;;5091190;28;20047;-70
2023/09/04 04:31:17;;;;;;;5.88;3.90;;;14.60;99.90;;;;;;5091113;28;20070;-70
2023/09/04 04:33:43;;;;;;;6.78;4.13;;;14.60;99.90;;;;;;5090072;28;20450;-70
2023/09/04 04:36:08;;;;;;;5.65;3.85;;;14.60;99.90;;;;;;5091743;28;20024;-70
2023/09/04 04:38:34;;;;;;;5.43;3.55;;;14.60;99.90;;;;;;5090161;28;20429;-70
2023/09/04 04:41:00;;;;;;;7.55;3.97;;;14.60;99.90;;;;;;5091111;28;20032;-70
2023/09/04 04:43:25;;;;;;;6.70;3.05;;;14.70;99.90;;;;;;5090977;28;20052;-71
2023/09/04 04:45:52;;;;;;;7.55;2.92;;;14.50;99.90;;;;;;5090779;28;20031;-70
2023/09/04 04:48:19;;;;;;;8.95;3.50;;;14.50;99.90;;;;;;5091489;28;20012;-70
2023/09/04 04:50:44;;;;;;;7.25;3.45;;;14.50;99.90;;;;;;5090917;28;20125;-69
2023/09/04 04:53:10;;;;;;;13.60;3.50;;;14.50;99.90;;;;;;5090369;28;20024;-70
2023/09/04 04:55:37;;;;;;;11.45;3.75;;;14.50;99.90;;;;;;5090989;28;20036;-70
2023/09/04 04:58:03;;;;;;;5.43;3.85;;;14.50;99.90;;;;;;5090741;28;20144;-70
2023/09/04 05:00:28;;;;;;;7.63;4.05;;;14.40;99.90;;;;;;5091199;28;20405;-70
2023/09/04 05:02:54;;;;;;;6.75;4.28;;;14.50;99.90;;;;;;5089779;28;20036;-69
2023/09/04 05:05:20;;;;;;;6.70;4.25;;;14.50;99.90;;;;;;5090667;28;20036;-70
2023/09/04 05:07:46;;;;;;;6.47;4.80;;;14.50;99.90;;;;;;5072908;28;20032;-70
2023/09/04 05:10:11;;;;;;;7.80;4.57;;;14.60;99.90;;;;;;5090922;28;20028;-70
2023/09/04 05:12:37;;;;;;;5.60;4.18;;;14.50;99.90;;;;;;5091587;28;20031;-70
2023/09/04 05:15:05;;;;;;;9.70;3.85;;;14.50;99.90;;;;;;5090681;28;20036;-71
2023/09/04 05:17:31;;;;;;;6.38;4.65;;;14.60;99.90;;;;;;5090693;28;20043;-70
2023/09/04 05:19:56;;;;;;;10.90;4.50;;;14.60;99.90;;;;;;5090745;28;20032;-69
2023/09/04 05:22:22;;;;;;;6.63;4.40;;;14.60;99.90;;;;;;5090649;28;20039;-69
2023/09/04 05:24:47;;;;;;;7.38;4.05;;;14.60;99.90;;;;;;5089413;28;20142;-69
2023/09/04 05:27:13;;;;;;;7.43;3.78;;;14.60;99.90;;;;;;5093022;28;20077;-70
2023/09/04 05:29:39;;;;;;;6.80;4.05;;;14.60;99.90;;;;;;5094561;28;20035;-70
2023/09/04 05:32:05;;;;;;;5.97;3.95;;;14.80;99.90;;;;;;5094662;28;20497;-67
2023/09/04 05:34:30;;;;;;;6.75;4.03;;;14.80;99.90;;;;;;5094386;28;20024;-69
2023/09/04 05:36:56;;;;;;;8.98;4.30;;;14.80;99.90;;;;;;5093178;28;20527;-68
2023/09/04 05:39:22;;;;;;;4.93;4.13;;;14.90;99.90;;;;;;5093736;28;20020;-68
2023/09/04 05:41:48;;;;;;;8.95;4.35;;;14.90;99.90;;;;;;5093187;28;20034;-69
2023/09/04 05:44:14;;;;;;;8.68;4.25;;;14.90;99.90;;;;;;5093219;28;20140;-70
2023/09/04 05:46:39;;;;;;;7.55;4.35;;;15.00;99.90;;;;;;5093770;28;20063;-71
2023/09/04 05:49:05;;;;;;;8.43;4.30;;;15.00;99.90;;;;;;5094387;28;20421;-70
2023/09/04 05:51:30;;;;;;;6.40;3.95;;;15.00;99.90;;;;;;5094491;28;20027;-69
2023/09/04 05:53:56;;;;;;;7.00;4.30;;;15.00;99.90;;;;;;5094208;28;20052;-69
2023/09/04 05:56:22;;;;;;;7.88;4.03;;;15.10;99.90;;;;;;5086898;28;20036;-69
2023/09/04 05:58:49;;;;;;;8.20;3.70;;;15.20;99.90;;;;;;5073508;28;20417;-70
2023/09/04 06:01:16;;;;;;;10.93;3.13;;;15.20;99.90;;;;;;5072517;28;20307;-68
2023/09/04 06:03:43;;;;;;;10.13;4.43;;;15.30;99.90;;;;;;5073543;28;20036;-69
2023/09/04 06:06:09;;;;;;;8.40;3.83;;;15.40;99.90;;;;;;5074093;28;20098;-68
2023/09/04 06:08:35;;;;;;;7.95;4.00;;;15.40;99.90;;;;;;5073684;28;20029;-69
2023/09/04 06:11:02;;;;;;;9.52;4.35;;;15.40;99.90;;;;;;5072508;28;20020;-69
2023/09/04 06:13:28;;;;;;;11.05;3.88;;;15.40;99.90;;;;;;5073482;28;20052;-68
2023/09/04 06:15:53;;;;;;;6.93;3.47;;;15.40;99.90;;;;;;5073537;28;20077;-69
2023/09/04 06:18:19;;;;;;;9.55;4.25;;;15.50;99.90;;;;;;5073674;28;20385;-68
2023/09/04 06:20:46;;;;;;;7.63;4.53;;;15.50;99.90;;;;;;5073507;28;20040;-69
2023/09/04 06:23:12;;;;;;;11.13;3.70;;;15.60;99.90;;;;;;5072453;28;20039;-68
2023/09/04 06:25:39;;;;;;;7.03;3.58;;;15.60;99.90;;;;;;5073028;28;20477;-68
2023/09/04 06:28:06;;;;;;;6.80;4.32;;;15.70;99.90;;;;;;5073287;28;20043;-67
2023/09/04 06:30:31;;;;;;;6.45;4.07;;;15.70;99.90;;;;;;5072426;28;20028;-69
2023/09/04 06:32:57;;;;;;;8.63;4.07;;;15.80;99.90;;;;;;5073172;28;20043;-69
2023/09/04 06:35:23;;;;;;;8.93;3.92;;;15.80;99.90;;;;;;5073154;28;20367;-69
2023/09/04 06:37:49;;;;;;;7.75;4.15;;;15.90;99.90;;;;;;5072448;28;20071;-68
2023/09/04 06:40:15;;;;;;;8.77;4.40;;;15.90;99.90;;;;;;5073028;28;20136;-68
2023/09/04 06:42:40;;;;;;;5.80;3.97;;;15.90;99.90;;;;;;5073336;28;20103;-68
2023/09/04 06:45:06;;;;;;;11.20;4.22;;;15.90;99.90;;;;;;5071947;28;20032;-69
2023/09/04 06:47:32;;;;;;;7.13;4.63;;;16.00;99.90;;;;;;5073150;28;20118;-69
2023/09/04 06:49:58;;;;;;;14.38;6.95;;;16.10;99.90;;;;;;5072561;28;20040;-68
2023/09/04 06:52:23;;;;;;;5.30;4.13;;;16.10;99.90;;;;;;5072834;28;20029;-69
2023/09/04 06:54:49;;;;;;;9.68;4.20;;;16.10;99.90;;;;;;5072564;28;20104;-69
2023/09/04 06:57:15;;;;;;;10.05;4.03;;;16.30;99.90;;;;;;5073003;28;20028;-69
2023/09/04 06:59:40;;;;;;;13.85;4.88;;;16.40;99.90;;;;;;5072937;28;20031;-69
2023/09/04 07:02:06;;;;;;;6.80;4.22;;;16.50;99.90;;;;;;5072677;28;20032;-68
2023/09/04 07:04:32;;;;;;;8.20;3.65;;;16.50;99.90;;;;;;5072777;28;20486;-68
2023/09/04 07:06:57;;;;;;;11.52;3.95;;;16.60;99.90;;;;;;5072474;28;20363;-69
2023/09/04 07:09:23;;;;;;;7.88;3.72;;;16.60;99.90;;;;;;5073088;28;20025;-69
2023/09/04 07:11:49;;;;;;;7.85;3.55;;;16.70;99.90;;;;;;5071547;28;20053;-69
2023/09/04 07:14:14;;;;;;;13.80;4.07;;;16.80;99.90;;;;;;5072411;28;20032;-68
2023/09/04 07:16:40;;;;;;;13.70;4.18;;;16.80;99.90;;;;;;5072495;28;20457;-68
2023/09/04 07:19:06;;;;;;;9.18;4.28;;;16.90;99.90;;;;;;5071278;28;20029;-69
2023/09/04 07:21:31;;;;;;;11.27;4.70;;;17.00;99.90;;;;;;5072901;28;20020;-68
2023/09/04 07:23:57;;;;;;;8.68;3.55;;;17.10;99.90;;;;;;5071086;28;20090;-68
2023/09/04 07:26:23;;;;;;;4.18;3.30;;;17.20;99.90;;;;;;5072179;28;20040;-68
2023/09/04 07:28:48;;;;;;;3.55;2.95;;;17.20;99.90;;;;;;5072239;28;20033;-70
2023/09/04 07:31:19;;;;;;;11.70;3.70;;;17.30;99.90;;;;;;5072041;28;20032;-68
2023/09/04 07:33:49;;;;;;;5.82;3.10;;;17.40;99.90;;;;;;5071929;28;20066;-69
2023/09/04 07:36:15;;;;;;;4.63;2.92;;;17.50;99.90;;;;;;5072681;28;20047;-68
2023/09/04 07:38:42;;;;;;;7.45;3.22;;;17.50;99.90;;;;;;5070782;28;20045;-68
2023/09/04 07:41:08;;;;;;;9.68;2.95;;;17.60;99.90;;;;;;5072029;28;20032;-68
2023/09/04 07:43:34;;;;;;;4.85;2.40;;;17.70;99.90;;;;;;5071887;28;20029;-68
2023/09/04 07:46:00;;;;;;;4.22;2.50;;;17.80;99.90;;;;;;5071518;28;20472;-67
2023/09/04 07:48:27;;;;;;;3.55;2.42;;;17.90;99.90;;;;;;5072172;28;20025;-68
2023/09/04 07:50:52;;;;;;;5.32;2.50;;;18.00;99.90;;;;;;5069280;28;20072;-67
2023/09/04 07:53:19;;;;;;;4.70;2.05;;;18.00;99.90;;;;;;5071400;28;20048;-67
2023/09/04 07:55:45;;;;;;;7.97;3.15;;;18.10;99.90;;;;;;5071539;28;20047;-68
2023/09/04 07:58:11;;;;;;;11.13;3.80;;;18.20;99.90;;;;;;5071341;28;20033;-68
2023/09/04 08:00:46;;;;;;;6.55;2.60;;;18.30;99.90;;;;;;5071721;28;20392;-68
2023/09/04 08:03:12;;;;;;;3.55;2.20;;;18.40;99.90;;;;;;5071482;28;20044;-69
2023/09/04 08:05:38;;;;;;;3.65;2.08;;;18.40;99.90;;;;;;5071065;28;20229;-68
2023/09/04 08:08:08;;;;;;;3.95;2.22;;;18.60;99.90;;;;;;5071502;28;20033;-69
2023/09/04 08:10:34;;;;;;;3.05;2.22;;;18.70;99.90;;;;;;5071460;28;20054;-68
2023/09/04 08:13:00;;;;;;;13.52;2.90;;;18.80;99.90;;;;;;5070199;28;20473;-68
2023/09/04 08:15:25;;;;;;;17.88;3.63;;;18.90;99.90;;;;;;5071680;28;20028;-68
2023/09/04 08:17:51;;;;;;;9.38;2.60;;;19.10;99.90;;;;;;5071064;28;20047;-68
2023/09/04 08:20:17;;;;;;;9.18;3.13;;;19.20;99.90;;;;;;5071151;28;20044;-69
2023/09/04 08:22:43;;;;;;;4.75;2.08;;;19.40;99.90;;;;;;5070792;28;20044;-69
2023/09/04 08:25:08;;;;;;;3.00;1.92;;;19.60;99.90;;;;;;5070964;28;20482;-69
2023/09/04 08:27:34;;;;;;;4.22;2.47;;;19.80;99.90;;;;;;5071419;28;20387;-67
2023/09/04 08:29:59;;;;;;;4.05;1.70;;;20.30;99.90;;;;;;5069741;28;20052;-67
2023/09/04 08:32:25;;;;;;;2.67;1.98;;;21.20;99.50;;;;;;5070964;28;20039;-67
2023/09/04 08:34:51;;;;;;;2.15;1.42;;;22.80;99.90;;;;;;5070764;28;20033;-68
2023/09/04 08:37:16;;;;;;;6.53;1.92;;;24.50;97.00;;;;;;5070949;28;20028;-68
2023/09/04 08:39:42;;;;;;;5.95;1.70;;;25.20;94.50;;;;;;5071297;28;20066;-69
2023/09/04 08:42:10;;;;;;;2.45;1.40;;;26.80;93.90;;;;;;5070887;28;20064;-70
2023/09/04 08:44:37;;;;;;;7.45;1.40;;;28.00;91.50;;;;;;5070797;28;20462;-69
2023/09/04 08:47:04;;;;;;;4.53;2.10;;;28.70;86.80;;;;;;5070860;28;20101;-68
2023/09/04 08:49:29;;;;;;;3.40;1.77;;;29.60;84.80;;;;;;5070721;28;20035;-69
2023/09/04 08:51:56;;;;;;;1.40;1.30;;;30.50;85.20;;;;;;5070469;28;20028;-69
2023/09/04 08:54:22;;;;;;;5.88;1.95;;;31.10;81.50;;;;;;5071025;28;20024;-69
2023/09/04 08:56:48;;;;;;;2.75;1.60;;;32.00;79.40;;;;;;5071107;28;20278;-69
2023/09/04 08:59:14;;;;;;;2.05;1.48;;;32.90;74.50;;;;;;5070767;28;20029;-69
2023/09/04 09:01:41;;;;;;;3.33;1.50;;;33.10;73.60;;;;;;5070721;28;20510;-69
2023/09/04 09:04:07;;;;;;;1.75;1.30;;;33.20;72.50;;;;;;5070782;28;20056;-69
2023/09/04 09:06:33;;;;;;;2.85;1.35;;;33.30;68.50;;;;;;5069758;28;20102;-70
2023/09/04 09:09:00;;;;;;;5.15;1.65;;;34.00;69.30;;;;;;5070665;28;20108;-69
2023/09/04 09:11:26;;;;;;;3.07;1.30;;;34.60;66.00;;;;;;5070708;28;20482;-70
2023/09/04 09:13:52;;;;;;;2.85;1.60;;;34.30;65.60;;;;;;5070603;28;20060;-70
2023/09/04 09:16:19;;;;;;;2.63;1.30;;;34.50;63.30;;;;;;5071295;28;20437;-70
2023/09/04 09:18:44;;;;;;;;;;;34.80;64.30;;;;;;5069800;28;20567;-70
2023/09/04 09:21:28;;;;;;;1.50;1.15;;;34.90;61.30;;;;;;5069908;28;19908;-69
2023/09/04 09:24:17;;;;;;;3.65;1.42;;;35.40;58.70;;;;;;5070527;28;20103;-69
2023/09/04 09:26:49;;;;;;;2.72;1.60;;;35.80;59.50;;;;;;5070401;28;20051;-68
2023/09/04 09:29:16;;;;;;;3.40;1.63;;;36.10;56.50;;;;;;5070349;28;20040;-70
2023/09/04 09:31:45;;;;;;;2.38;1.48;;;36.00;56.60;;;;;;5070422;28;20374;-70
2023/09/04 09:34:10;;;;;;;4.18;1.75;;;37.10;56.60;;;;;;5070257;28;20035;-69
2023/09/04 09:36:37;;;;;;;3.78;1.40;;;37.70;55.20;;;;;;5070602;28;20021;-69
2023/09/04 09:39:05;;;;;;;3.33;1.55;;;37.70;54.10;;;;;;5070756;28;20139;-69
2023/09/04 09:41:30;;;;;;;2.42;1.63;;;36.80;54.00;;;;;;5070573;28;20040;-70
2023/09/04 09:43:59;;;;;;;4.82;1.33;;;36.50;54.40;;;;;;5070687;28;20025;-68
2023/09/04 09:46:24;;;;;;;4.40;1.30;;;36.50;52.90;;;;;;5070232;28;20028;-69
2023/09/04 09:48:50;;;;;;;2.92;1.65;;;36.80;52.30;;;;;;5070566;28;20027;-69
2023/09/04 09:51:16;;;;;;;1.67;1.30;;;37.10;52.30;;;;;;5070656;28;20108;-69
2023/09/04 09:53:46;;;;;;;5.05;2.20;;;37.40;53.40;;;;;;5070166;28;20435;-69
2023/09/04 09:56:13;;;;;;;1.73;1.20;;;37.50;52.10;;;;;;5070230;28;20021;-68
2023/09/04 09:58:42;;;;;;;5.03;1.63;;;37.70;51.40;;;;;;5070276;28;20266;-69
2023/09/04 10:01:08;;;;;;;2.72;1.80;;;38.10;51.50;;;;;;5069920;28;20028;-68
2023/09/04 10:03:35;;;;;;;2.25;1.27;;;38.40;48.90;;;;;;5070821;28;20040;-69
2023/09/04 10:06:02;;;;;;;;;;;38.90;49.20;;;;;;5070193;28;20064;-68
2023/09/04 10:08:29;;;;;;;4.80;1.60;;;39.60;47.80;;;;;;5069821;28;20007;-69
2023/09/04 10:10:57;;;;;;;8.00;1.55;;;39.70;48.20;;;;;;5070441;28;20098;-69
2023/09/04 10:13:27;;;;;;;4.75;1.42;;;40.00;46.20;;;;;;5071798;28;20028;-69
2023/09/04 10:16:00;;;;;;;3.53;1.67;;;40.20;46.20;;;;;;5072392;28;20142;-69
2023/09/04 10:18:31;;;;;;;2.47;1.33;;;38.90;46.40;;;;;;5073945;28;20039;-68
2023/09/04 10:20:58;;;;;;;2.95;1.58;;;39.20;46.00;;;;;;5073317;28;20036;-67
2023/09/04 10:23:31;;;;;;;1.67;1.23;;;38.00;47.20;;;;;;5073343;28;20036;-69
2023/09/04 10:26:17;;;;;;;2.45;1.30;;;38.30;45.90;;;;;;5073192;28;20481;-69
2023/09/04 10:28:57;;;;;;;1.63;1.23;;;38.50;49.20;;;;;;5073900;28;20087;-69
2023/09/04 10:31:25;;;;;;;2.05;1.27;;;38.70;46.80;;;;;;5073905;28;20137;-69
2023/09/04 10:33:51;;;;;;;;;;;38.20;47.10;;;;;;5074821;28;20473;-68
2023/09/04 10:36:19;;;;;;;2.58;1.70;;;38.00;47.70;;;;;;5076165;28;20370;-69
2023/09/04 10:38:45;;;;;;;1.20;1.10;;;38.50;45.90;;;;;;5073761;28;20044;-69
2023/09/04 10:41:14;;;;;;;1.98;1.33;;;38.50;46.40;;;;;;5073509;28;20186;-69
2023/09/04 10:43:43;;;;;;;3.85;1.70;;;38.50;45.60;;;;;;5074253;28;20355;-69
2023/09/04 10:46:12;;;;;;;2.28;1.48;;;39.20;44.80;;;;;;5072017;28;20043;-68
2023/09/04 10:48:46;;;;;;;3.15;1.33;;;39.90;43.70;;;;;;5075204;28;20043;-68
2023/09/04 10:51:38;;;;;;;2.40;2.03;;;40.30;43.20;;;;;;5073230;28;20045;-68
2023/09/04 10:54:12;;;;;;;2.83;1.38;;;39.70;43.80;;;;;;5072745;28;20037;-69
2023/09/04 10:57:01;;;;;;;4.88;1.83;;;40.30;42.50;;;;;;5071737;28;20029;-69
2023/09/04 10:59:28;;;;;;;1.90;1.40;;;38.60;45.30;;;;;;5072822;28;20025;-68
2023/09/04 11:01:54;;;;;;;3.95;1.90;;;38.80;44.50;;;;;;5072577;28;20385;-68
2023/09/04 11:04:45;;;;;;;1.50;1.30;;;39.60;44.00;;;;;;5072405;28;20028;-68
2023/09/04 11:07:19;;;;;;;5.55;2.22;;;39.80;42.70;;;;;;5072669;28;20035;-69
2023/09/04 11:09:45;;;;;;;1.95;1.48;;;39.20;42.90;;;;;;5071497;28;20033;-68
2023/09/04 11:12:18;;;;;;;4.80;1.38;;;38.20;44.30;;;;;;5073260;28;20428;-68
2023/09/04 11:14:48;;;;;;;2.65;1.30;;;37.80;45.30;;;;;;5072508;28;20086;-69
2023/09/04 11:17:17;;;;;;;3.65;1.20;;;36.80;44.90;;;;;;5072512;28;20025;-68
2023/09/04 11:19:43;;;;;;;3.15;1.45;;;36.40;44.80;;;;;;5072229;28;20386;-68
2023/09/04 11:22:26;;;;;;;6.60;1.42;;;35.80;45.50;;;;;;5072306;28;20484;-70
2023/09/04 11:24:55;;;;;;;3.05;1.55;;;36.10;46.00;;;;;;5072153;28;20439;-69
2023/09/04 11:27:22;;;;;;;2.72;1.63;;;35.30;46.20;;;;;;5072506;28;20104;-69
2023/09/04 11:29:48;;;;;;;2.58;1.63;;;35.00;47.20;;;;;;5072186;28;20119;-68
2023/09/04 11:32:18;;;;;;;4.13;1.60;;;33.90;48.20;;;;;;5071971;28;20036;-69
2023/09/04 11:34:45;;;;;;;4.43;1.45;;;33.30;49.00;;;;;;5071450;28;20094;-69
2023/09/04 11:37:12;;;;;;;2.63;1.40;;;32.20;50.90;;;;;;5072095;28;20474;-68
2023/09/04 11:39:58;;;;;;;4.97;1.58;;;32.00;52.00;;;;;;5072409;28;20032;-68
2023/09/04 11:42:27;;;;;;;6.03;1.40;;;31.50;51.90;;;;;;5071885;28;20029;-68
2023/09/04 11:44:53;;;;;;;2.83;1.88;;;31.30;53.00;;;;;;5071896;28;20104;-69
2023/09/04 11:47:20;;;;;;;3.58;2.75;;;30.50;53.50;;;;;;5070587;28;20025;-69
2023/09/04 11:49:46;;;;;;;3.33;1.52;;;30.10;54.70;;;;;;5071717;28;20513;-69
2023/09/04 11:52:13;;;;;;;2.60;1.50;;;30.00;54.50;;;;;;5071555;28;20512;-68
2023/09/04 11:54:42;;;;;;;3.70;1.47;;;30.10;54.70;;;;;;5071882;28;20028;-68
2023/09/04 11:57:11;;;;;;;4.72;1.55;;;29.80;55.20;;;;;;5071437;28;20088;-67
2023/09/04 11:59:39;;;;;;;1.88;1.52;;;29.60;55.70;;;;;;5071528;28;20040;-68
2023/09/04 12:02:05;;;;;;;2.55;1.30;;;29.70;55.00;;;;;;5071345;28;20478;-67
2023/09/04 12:04:32;;;;;;;3.00;1.57;;;29.70;54.90;;;;;;5071159;28;20455;-67
2023/09/04 12:07:05;;;;;;;6.80;1.80;;;29.60;55.40;;;;;;5071191;28;20043;-68
2023/09/04 12:09:35;;;;;;;1.58;1.30;;;29.60;54.90;;;;;;5071866;28;20017;-69
2023/09/04 12:12:01;;;;;;;2.60;1.50;;;29.40;55.70;;;;;;5071674;28;20043;-69
2023/09/04 12:14:27;;;;;;;4.30;1.50;;;29.30;56.10;;;;;;5071599;28;20042;-68
2023/09/04 12:16:53;;;;;;;3.53;1.73;;;29.10;56.70;;;;;;5071322;28;20033;-69
2023/09/04 12:19:23;;;;;;;3.72;1.33;;;28.90;56.70;;;;;;5070126;28;20047;-68
2023/09/04 12:21:49;;;;;;;4.65;1.50;;;28.90;57.10;;;;;;5071162;28;20035;-68
2023/09/04 12:24:15;;;;;;;2.30;1.40;;;28.80;57.40;;;;;;5071380;28;20024;-68
2023/09/04 12:26:42;;;;;;;1.77;1.30;;;28.80;57.50;;;;;;5071070;28;20032;-68
2023/09/04 12:29:09;;;;;;;2.20;1.45;;;28.80;57.50;;;;;;5069899;28;20463;-68
2023/09/04 12:31:36;;;;;;;5.05;1.63;;;28.90;57.20;;;;;;5071466;28;20025;-69
2023/09/04 12:34:02;;;;;;;3.15;1.20;;;29.00;57.20;;;;;;5070021;28;20415;-69
2023/09/04 12:36:30;;;;;;;4.70;1.70;;;28.90;57.70;;;;;;5071275;28;20369;-69
2023/09/04 12:38:56;;;;;;;5.30;1.73;;;28.70;58.10;;;;;;5069991;28;20028;-68
2023/09/04 12:41:22;;;;;;;2.90;1.80;;;28.60;57.80;;;;;;5070972;28;20336;-69
2023/09/04 12:43:48;;;;;;;6.47;1.98;;;28.50;57.40;;;;;;5070778;28;20183;-69
2023/09/04 12:46:13;;;;;;;5.45;2.28;;;28.30;57.80;;;;;;5070453;28;20056;-68
2023/09/04 12:48:41;;;;;;;3.50;1.80;;;28.20;58.30;;;;;;5071020;28;20171;-69